Time;durP1;ratioP1;P1;durP2;ratioP2;P2;SDS_P1;SDS_P2;PMS_P1;PMS_P2;Temp;Humidity;BMP_temperature;BMP_pressure;BME280_temperature;BME280_humidity;BME280_pressure;Samples;Min_cycle;Max_cycle;Signal;HPM_P1;HPM_P2
2021/05/11 00:01:07;;;;;;;3.25;0.75;;;21.70;53.80;;;;;;5057235;28;20055;-52
2021/05/11 00:03:33;;;;;;;1.25;0.60;;;21.70;53.80;;;;;;5057219;28;20104;-53
2021/05/11 00:05:59;;;;;;;0.63;0.40;;;21.70;53.80;;;;;;5057132;28;20079;-55
2021/05/11 00:08:24;;;;;;;2.30;0.43;;;21.70;53.80;;;;;;5056727;28;20025;-50
2021/05/11 00:10:50;;;;;;;1.65;0.50;;;21.60;53.80;;;;;;5056844;28;20424;-52
2021/05/11 00:13:15;;;;;;;1.13;0.73;;;21.70;53.80;;;;;;5057540;28;20059;-51
2021/05/11 00:15:41;;;;;;;2.60;0.50;;;21.60;53.80;;;;;;5057035;28;20025;-51
2021/05/11 00:18:07;;;;;;;1.25;0.50;;;21.70;53.90;;;;;;5057210;28;20029;-51
2021/05/11 00:20:32;;;;;;;1.98;0.73;;;21.60;53.80;;;;;;5056490;28;20039;-55
2021/05/11 00:22:58;;;;;;;1.88;0.90;;;21.70;53.80;;;;;;5056522;28;20078;-54
2021/05/11 00:25:23;;;;;;;1.05;0.50;;;21.70;53.90;;;;;;5056749;28;20091;-48
2021/05/11 00:27:49;;;;;;;0.85;0.50;;;21.60;53.90;;;;;;5056575;28;20047;-51
2021/05/11 00:30:15;;;;;;;2.58;0.57;;;21.60;53.90;;;;;;5056477;28;20062;-52
2021/05/11 00:32:40;;;;;;;0.98;0.65;;;21.60;53.80;;;;;;5056349;28;20025;-50
2021/05/11 00:35:06;;;;;;;0.68;0.50;;;21.60;53.90;;;;;;5056567;28;20028;-51
2021/05/11 00:37:32;;;;;;;1.55;0.60;;;21.60;53.90;;;;;;5039194;28;20036;-53
2021/05/11 00:39:57;;;;;;;1.80;0.60;;;21.60;53.80;;;;;;5056595;28;20120;-56
2021/05/11 00:42:23;;;;;;;1.58;0.63;;;21.60;53.90;;;;;;5056929;28;20336;-52
2021/05/11 00:44:49;;;;;;;1.50;0.65;;;21.60;53.80;;;;;;5056432;28;20343;-52
2021/05/11 00:47:14;;;;;;;0.50;0.50;;;21.60;53.90;;;;;;5056430;28;20439;-49
2021/05/11 00:49:40;;;;;;;0.60;0.60;;;21.60;53.90;;;;;;5056194;28;20048;-54
2021/05/11 00:52:07;;;;;;;1.48;0.60;;;21.60;53.90;;;;;;5056019;28;20039;-50
2021/05/11 00:54:33;;;;;;;1.38;0.68;;;21.60;53.90;;;;;;5056616;28;20029;-55
2021/05/11 00:57:01;;;;;;;0.88;0.50;;;21.60;53.90;;;;;;5056240;28;20039;-54
2021/05/11 00:59:28;;;;;;;1.17;0.50;;;21.60;54.00;;;;;;5056286;28;20362;-49
2021/05/11 01:01:55;;;;;;;2.38;0.77;;;21.60;53.90;;;;;;5056244;28;20045;-52
2021/05/11 01:04:21;;;;;;;1.27;0.70;;;21.60;54.00;;;;;;5056270;28;20029;-51
2021/05/11 01:06:47;;;;;;;2.13;0.75;;;21.60;53.90;;;;;;5055954;28;20028;-54
2021/05/11 01:09:14;;;;;;;1.15;0.63;;;21.60;54.00;;;;;;5055720;28;20079;-56
2021/05/11 01:11:39;;;;;;;1.20;0.50;;;21.60;54.00;;;;;;5056456;28;20064;-54
2021/05/11 01:14:06;;;;;;;1.02;0.45;;;21.50;54.00;;;;;;5055873;28;20051;-53
2021/05/11 01:16:32;;;;;;;1.27;0.50;;;21.60;54.00;;;;;;5055847;28;20352;-53
2021/05/11 01:19:10;;;;;;;1.02;0.65;;;21.50;54.00;;;;;;5055795;28;20021;-49
2021/05/11 01:24:13;;;;;;;0.75;0.50;;;21.50;54.00;;;;;;5056057;28;20029;-53
2021/05/11 01:29:15;;;;;;;2.50;0.80;;;21.50;54.00;;;;;;5055605;28;20052;-53
2021/05/11 01:32:19;;;;;;;0.70;0.40;;;21.50;54.00;;;;;;5055554;28;20017;-56
2021/05/11 01:48:52;;;;;;;3.45;0.55;;;21.50;54.10;;;;;;5055395;28;20395;-51
2021/05/11 01:51:25;;;;;;;0.52;0.40;;;21.50;54.10;;;;;;5053980;28;20045;-56
2021/05/11 01:54:19;;;;;;;1.42;0.70;;;21.50;54.10;;;;;;5055525;28;20013;-53
2021/05/11 01:57:20;;;;;;;1.10;0.60;;;21.50;54.10;;;;;;5055228;28;20505;-53
2021/05/11 02:11:06;;;;;;;1.88;0.73;;;21.40;54.20;;;;;;5055380;28;20044;-51
2021/05/11 02:24:26;;;;;;;0.98;0.68;;;21.40;54.30;;;;;;5054882;28;20550;-56
2021/05/11 02:26:52;;;;;;;1.50;0.70;;;21.40;54.30;;;;;;5054829;28;20052;-54
2021/05/11 02:29:17;;;;;;;1.25;0.70;;;21.40;54.30;;;;;;5054623;28;20079;-54
2021/05/11 02:31:43;;;;;;;0.85;0.40;;;21.40;54.30;;;;;;5054591;28;20031;-52
2021/05/11 02:34:08;;;;;;;1.30;0.65;;;21.40;54.30;;;;;;5054180;28;20359;-52
2021/05/11 02:36:34;;;;;;;1.20;0.80;;;21.40;54.30;;;;;;5054333;28;20025;-54
2021/05/11 02:38:59;;;;;;;1.42;0.75;;;21.40;54.30;;;;;;5054736;28;20096;-53
2021/05/11 02:41:25;;;;;;;1.02;0.70;;;21.40;54.30;;;;;;5055146;28;20183;-52
2021/05/11 02:43:50;;;;;;;1.00;0.63;;;21.40;54.30;;;;;;5054603;28;20340;-57
2021/05/11 02:46:16;;;;;;;1.08;0.98;;;21.40;54.30;;;;;;5054778;28;20063;-56
2021/05/11 02:48:41;;;;;;;1.17;1.08;;;21.40;54.30;;;;;;5054680;28;20163;-55
2021/05/11 02:51:07;;;;;;;1.20;0.93;;;21.40;54.40;;;;;;5054459;28;20033;-57
2021/05/11 02:53:32;;;;;;;1.85;0.88;;;21.40;54.30;;;;;;5054137;28;20522;-58
2021/05/11 02:55:58;;;;;;;1.42;0.70;;;21.40;54.30;;;;;;5056161;28;20096;-52
2021/05/11 02:58:23;;;;;;;1.08;0.80;;;21.40;54.40;;;;;;5058626;28;20036;-53
2021/05/11 03:00:49;;;;;;;1.27;0.70;;;21.40;54.30;;;;;;5058803;28;20352;-53
2021/05/11 03:03:14;;;;;;;0.70;0.55;;;21.40;54.40;;;;;;5058629;28;20072;-56
2021/05/11 03:05:40;;;;;;;0.85;0.68;;;21.40;54.40;;;;;;5058582;28;20021;-54
2021/05/11 03:08:06;;;;;;;1.35;0.80;;;21.40;54.40;;;;;;5058084;28;20451;-50
2021/05/11 03:10:31;;;;;;;2.38;1.08;;;21.40;54.40;;;;;;5057822;28;20033;-53
2021/05/11 03:12:57;;;;;;;1.08;0.70;;;21.30;54.30;;;;;;5058391;28;20029;-51
2021/05/11 03:15:22;;;;;;;1.30;1.10;;;21.40;54.40;;;;;;5058474;28;20029;-51
2021/05/11 03:17:48;;;;;;;1.83;1.10;;;21.40;54.40;;;;;;5058151;28;20029;-51
2021/05/11 03:20:14;;;;;;;1.50;0.80;;;21.40;54.40;;;;;;5057819;28;20029;-50
2021/05/11 03:22:40;;;;;;;0.85;0.77;;;21.30;54.40;;;;;;5058091;28;20040;-49
2021/05/11 03:25:06;;;;;;;1.30;0.88;;;21.30;54.40;;;;;;5058047;28;20456;-52
2021/05/11 03:27:31;;;;;;;2.53;0.98;;;21.30;54.40;;;;;;5057935;28;20337;-53
2021/05/11 03:29:57;;;;;;;1.50;0.88;;;21.40;54.40;;;;;;5057499;28;20029;-56
2021/05/11 03:32:22;;;;;;;2.17;1.00;;;21.30;54.40;;;;;;5057774;28;20058;-51
2021/05/11 03:34:48;;;;;;;1.35;0.82;;;21.30;54.40;;;;;;5057749;28;20163;-53
2021/05/11 03:37:13;;;;;;;0.63;0.63;;;21.30;54.40;;;;;;5057658;28;20017;-48
2021/05/11 03:39:41;;;;;;;2.25;1.27;;;21.30;54.40;;;;;;5057323;28;20052;-53
2021/05/11 03:42:22;;;;;;;1.90;0.77;;;21.30;54.40;;;;;;5057638;28;20047;-57
2021/05/11 03:44:52;;;;;;;1.25;0.82;;;21.30;54.40;;;;;;5057752;28;20021;-53
2021/05/11 03:47:20;;;;;;;1.65;0.98;;;21.30;54.40;;;;;;5058153;28;20025;-50
2021/05/11 03:49:46;;;;;;;1.02;0.80;;;21.30;54.40;;;;;;5057580;28;20024;-53
2021/05/11 03:52:11;;;;;;;1.20;0.77;;;21.30;54.40;;;;;;5057559;28;20048;-51
2021/05/11 03:54:37;;;;;;;3.92;0.88;;;21.30;54.40;;;;;;5057723;28;20021;-55
2021/05/11 03:57:04;;;;;;;2.72;0.98;;;21.30;54.40;;;;;;5057364;28;20090;-57
2021/05/11 03:59:30;;;;;;;1.23;0.85;;;21.30;54.40;;;;;;5057688;28;20017;-52
2021/05/11 04:01:55;;;;;;;0.82;0.80;;;21.30;55.10;;;;;;5056936;28;20091;-49
2021/05/11 04:04:21;;;;;;;2.53;1.50;;;21.30;54.50;;;;;;5056870;28;20036;-51
2021/05/11 04:06:47;;;;;;;1.65;0.85;;;21.30;54.40;;;;;;5038826;28;20024;-52
2021/05/11 04:16:33;;;;;;;1.00;0.90;;;21.30;54.50;;;;;;5056996;28;20039;-53
2021/05/11 04:18:58;;;;;;;1.05;0.82;;;21.30;54.50;;;;;;5056984;28;20423;-52
2021/05/11 04:21:24;;;;;;;4.63;0.90;;;21.20;54.40;;;;;;5056293;28;20099;-52
2021/05/11 04:23:53;;;;;;;1.48;0.95;;;21.30;54.50;;;;;;5056710;28;20099;-51
2021/05/11 04:26:20;;;;;;;1.90;0.90;;;21.20;54.40;;;;;;5057123;28;20036;-53
2021/05/11 04:28:47;;;;;;;1.90;1.05;;;21.20;54.40;;;;;;5056374;28;20367;-56
2021/05/11 04:31:13;;;;;;;2.58;1.00;;;21.20;54.40;;;;;;5056883;28;20359;-54
2021/05/11 04:33:38;;;;;;;1.15;0.88;;;21.30;54.50;;;;;;5056624;28;20414;-58
2021/05/11 04:36:05;;;;;;;1.70;0.88;;;21.20;54.40;;;;;;5057093;28;20021;-54
2021/05/11 04:38:30;;;;;;;0.90;0.85;;;21.20;54.40;;;;;;5056242;28;20451;-55
2021/05/11 04:40:56;;;;;;;1.10;0.93;;;21.30;54.50;;;;;;5056920;28;20059;-56
2021/05/11 04:43:24;;;;;;;2.33;0.85;;;21.20;54.40;;;;;;5056474;28;20025;-49
2021/05/11 04:45:51;;;;;;;1.40;1.00;;;21.20;54.40;;;;;;5056228;28;20021;-53
2021/05/11 04:48:17;;;;;;;1.77;0.85;;;21.20;54.50;;;;;;5056130;28;20040;-54
2021/05/11 04:50:43;;;;;;;5.68;0.80;;;21.20;54.50;;;;;;5056657;28;20025;-55
2021/05/11 04:53:08;;;;;;;1.70;0.80;;;21.20;54.50;;;;;;5056063;28;20056;-59
2021/05/11 04:55:34;;;;;;;2.58;0.70;;;21.20;54.50;;;;;;5056330;28;20028;-58
2021/05/11 04:58:00;;;;;;;6.38;1.15;;;21.20;54.50;;;;;;5056524;28;20025;-58
2021/05/11 05:00:26;;;;;;;4.03;1.00;;;21.30;54.60;;;;;;5056362;28;20032;-59
2021/05/11 05:02:53;;;;;;;8.35;1.08;;;21.20;54.50;;;;;;5056101;28;20042;-57
2021/05/11 05:05:20;;;;;;;5.50;1.52;;;21.20;54.50;;;;;;5056000;28;20082;-56
2021/05/11 05:07:46;;;;;;;5.13;1.13;;;21.20;54.50;;;;;;5056115;28;20021;-55
2021/05/11 05:10:12;;;;;;;6.78;1.35;;;21.20;54.60;;;;;;5055846;28;20171;-54
2021/05/11 05:12:38;;;;;;;6.68;1.08;;;21.20;54.90;;;;;;5055907;28;20025;-56
2021/05/11 05:15:04;;;;;;;4.47;1.17;;;21.20;55.00;;;;;;5056082;28;20040;-57
2021/05/11 05:17:30;;;;;;;3.00;1.27;;;21.20;55.20;;;;;;5055358;28;20031;-59
2021/05/11 05:19:55;;;;;;;7.82;1.90;;;21.20;55.30;;;;;;5055249;28;20095;-54
2021/05/11 05:22:21;;;;;;;4.90;1.40;;;21.20;55.40;;;;;;5055451;28;20108;-54
2021/05/11 05:24:53;;;;;;;4.53;1.10;;;21.20;55.40;;;;;;5055674;28;20067;-58
2021/05/11 05:27:27;;;;;;;3.72;1.13;;;21.10;55.40;;;;;;5055965;28;20045;-54
2021/05/11 05:29:52;;;;;;;4.65;1.10;;;21.10;55.50;;;;;;5055187;28;20452;-55
2021/05/11 05:32:18;;;;;;;3.55;0.90;;;21.10;55.50;;;;;;5055312;28;20167;-54
2021/05/11 05:34:44;;;;;;;4.68;1.10;;;21.10;55.50;;;;;;5055555;28;20340;-57
2021/05/11 05:37:10;;;;;;;2.38;0.90;;;21.10;55.50;;;;;;5055497;28;20048;-59
2021/05/11 05:39:41;;;;;;;3.67;0.90;;;21.10;55.50;;;;;;5055413;28;20032;-57
2021/05/11 05:42:06;;;;;;;4.30;1.40;;;21.20;55.60;;;;;;5055315;28;20025;-58
2021/05/11 05:44:32;;;;;;;1.33;0.70;;;21.10;55.50;;;;;;5055570;28;20546;-59
2021/05/11 05:46:58;;;;;;;3.13;0.80;;;21.10;55.60;;;;;;5055097;28;20055;-57
2021/05/11 05:49:26;;;;;;;3.90;0.80;;;21.10;55.60;;;;;;5055621;28;20051;-54
2021/05/11 05:51:52;;;;;;;4.68;0.93;;;21.20;55.60;;;;;;5055213;28;20108;-57
2021/05/11 05:54:17;;;;;;;1.77;0.90;;;21.10;55.60;;;;;;5055079;28;20158;-57
2021/05/11 05:56:43;;;;;;;1.85;1.15;;;21.10;55.70;;;;;;5055169;28;20467;-58
2021/05/11 05:59:09;;;;;;;3.08;1.05;;;21.20;55.70;;;;;;5055057;28;20039;-56
2021/05/11 06:01:35;;;;;;;1.38;0.95;;;21.10;55.60;;;;;;5054813;28;20032;-58
2021/05/11 06:04:13;;;;;;;2.58;1.05;;;21.10;55.80;;;;;;5055408;28;20032;-52
2021/05/11 06:06:42;;;;;;;3.70;1.00;;;21.20;56.30;;;;;;5054621;28;20033;-53
2021/05/11 06:09:19;;;;;;;2.83;0.95;;;21.10;55.60;;;;;;5054643;28;20444;-53
2021/05/11 06:11:49;;;;;;;3.03;1.35;;;21.10;55.60;;;;;;5054372;28;20402;-53
2021/05/11 06:14:21;;;;;;;3.58;1.10;;;21.10;56.30;;;;;;5055036;28;20057;-58
2021/05/11 06:19:31;;;;;;;10.75;1.50;;;21.20;55.70;;;;;;5055008;28;20075;-58
2021/05/11 06:21:56;;;;;;;1.55;0.93;;;21.10;55.60;;;;;;5054989;28;20021;-56
2021/05/11 06:24:22;;;;;;;1.85;1.10;;;21.10;55.60;;;;;;5054573;28;20035;-57
2021/05/11 06:26:48;;;;;;;1.17;0.82;;;21.10;55.70;;;;;;5054591;28;20025;-57
2021/05/11 06:29:14;;;;;;;4.00;0.80;;;21.10;55.70;;;;;;5054792;28;20037;-57
2021/05/11 06:31:40;;;;;;;1.80;1.00;;;21.10;55.70;;;;;;5054772;28;20021;-57
2021/05/11 06:34:07;;;;;;;0.90;0.70;;;21.10;55.70;;;;;;5054648;28;20507;-53
2021/05/11 06:36:33;;;;;;;2.45;0.80;;;21.10;55.70;;;;;;5036761;28;20040;-56
2021/05/11 06:39:01;;;;;;;3.38;0.82;;;21.10;55.70;;;;;;5054150;28;20033;-54
2021/05/11 06:41:27;;;;;;;2.85;0.90;;;21.10;55.70;;;;;;5054240;28;20364;-56
2021/05/11 06:44:00;;;;;;;2.05;0.98;;;21.20;55.70;;;;;;5055044;28;20449;-58
2021/05/11 06:54:38;;;;;;;2.17;0.80;;;21.10;55.70;;;;;;5054230;28;20040;-57
2021/05/11 06:57:05;;;;;;;1.50;0.52;;;21.10;55.60;;;;;;5054363;28;20078;-53
2021/05/11 06:59:31;;;;;;;1.98;0.80;;;21.10;55.60;;;;;;5054421;28;20021;-57
2021/05/11 07:01:56;;;;;;;1.25;0.65;;;21.10;55.60;;;;;;5036687;28;20040;-57
2021/05/11 07:04:22;;;;;;;1.27;0.70;;;21.20;55.70;;;;;;5054778;28;20155;-56
2021/05/11 07:06:47;;;;;;;1.75;0.82;;;21.10;55.60;;;;;;5054051;28;20021;-58
2021/05/11 07:09:17;;;;;;;1.05;0.60;;;21.20;55.60;;;;;;5054408;28;20138;-56
2021/05/11 07:14:08;;;;;;;2.33;0.85;;;21.20;55.50;;;;;;5054352;28;20029;-54
2021/05/11 07:16:34;;;;;;;1.63;0.85;;;21.20;55.50;;;;;;5054120;28;20025;-55
2021/05/11 07:18:59;;;;;;;2.05;0.90;;;21.20;55.50;;;;;;5054190;28;20033;-60
2021/05/11 07:21:25;;;;;;;1.40;0.80;;;21.30;55.60;;;;;;5054114;28;20106;-55
2021/05/11 07:23:50;;;;;;;1.30;0.90;;;21.30;55.50;;;;;;5054363;28;20060;-59
2021/05/11 07:31:29;;;;;;;3.70;0.88;;;21.30;55.50;;;;;;5054132;28;20116;-55
2021/05/11 07:33:56;;;;;;;1.73;0.90;;;21.30;55.50;;;;;;5054528;28;20028;-55
2021/05/11 07:36:22;;;;;;;1.00;0.93;;;21.30;55.50;;;;;;5054083;28;20104;-51
2021/05/11 07:38:49;;;;;;;2.25;0.90;;;21.30;55.50;;;;;;5053765;28;20348;-59
2021/05/11 07:41:15;;;;;;;1.92;0.82;;;21.30;55.50;;;;;;5054316;28;20364;-56
2021/05/11 07:43:44;;;;;;;1.58;0.98;;;21.30;55.40;;;;;;5039896;28;20108;-56
2021/05/11 07:49:02;;;;;;;1.17;0.60;;;21.40;55.30;;;;;;5057787;28;20037;-57
2021/05/11 08:02:52;;;;;;;0.80;0.60;;;21.50;55.00;;;;;;5057220;28;20032;-55
2021/05/11 08:09:53;;;;;;;0.85;0.65;;;21.50;54.90;;;;;;5057308;28;20025;-54
2021/05/11 08:15:57;;;;;;;1.73;0.85;;;21.50;55.00;;;;;;5056730;28;20036;-57
2021/05/11 08:29:12;;;;;;;1.02;0.68;;;21.60;55.00;;;;;;5056628;28;20044;-57
2021/05/11 08:31:37;;;;;;;1.15;0.93;;;21.60;55.00;;;;;;5056640;28;20029;-55
2021/05/11 08:34:03;;;;;;;2.30;1.10;;;21.60;55.10;;;;;;5057049;28;20455;-55
2021/05/11 08:36:29;;;;;;;3.28;1.00;;;21.60;55.00;;;;;;5056702;28;20105;-54
2021/05/11 08:38:57;;;;;;;2.33;1.10;;;21.60;55.00;;;;;;5056900;28;20025;-57
2021/05/11 08:41:23;;;;;;;1.98;0.80;;;21.60;55.00;;;;;;5056553;28;20049;-57
2021/05/11 08:43:49;;;;;;;1.55;0.80;;;21.60;55.00;;;;;;5056605;28;20354;-57
2021/05/11 08:46:15;;;;;;;1.48;0.95;;;21.60;55.00;;;;;;5056428;28;20058;-55
2021/05/11 08:48:41;;;;;;;1.33;0.70;;;21.60;55.00;;;;;;5056335;28;20123;-57
2021/05/11 09:04:48;;;;;;;1.10;0.68;;;21.50;55.10;;;;;;5055938;28;20079;-53
2021/05/11 10:11:12;;;;;;;1.35;0.90;;;21.50;55.20;;;;;;5054454;28;20098;-59
2021/05/11 10:14:27;;;;;;;3.33;0.68;;;21.50;55.20;;;;;;5054413;28;20075;-55
2021/05/11 10:47:02;;;;;;;1.40;0.75;;;21.80;55.20;;;;;;5054271;28;20439;-54
2021/05/11 10:49:37;;;;;;;4.55;1.15;;;21.80;55.20;;;;;;5054589;28;20074;-57
2021/05/11 10:52:15;;;;;;;1.23;0.80;;;21.80;55.20;;;;;;5054509;28;20025;-53
2021/05/11 10:54:48;;;;;;;1.40;0.80;;;21.80;55.20;;;;;;5054505;28;20053;-56
2021/05/11 11:00:42;;;;;;;1.88;0.88;;;21.90;55.20;;;;;;5052303;28;20440;-58
2021/05/11 11:03:14;;;;;;;1.67;0.88;;;21.90;55.10;;;;;;5047851;28;20462;-59
2021/05/11 11:05:41;;;;;;;0.68;0.68;;;21.90;55.20;;;;;;5054841;28;20021;-56
2021/05/11 11:08:28;;;;;;;1.40;0.70;;;22.00;55.20;;;;;;5054369;28;20060;-56
2021/05/11 11:11:10;;;;;;;4.32;1.00;;;22.00;55.20;;;;;;5054208;28;20121;-57
2021/05/11 11:13:41;;;;;;;1.33;0.70;;;22.00;55.20;;;;;;5054502;28;20037;-55
2021/05/11 11:16:06;;;;;;;1.00;0.70;;;22.00;55.10;;;;;;5055070;28;20036;-53
2021/05/11 11:18:32;;;;;;;0.93;0.70;;;22.00;55.10;;;;;;5057860;28;20029;-58
2021/05/11 11:23:54;;;;;;;;;;;22.00;55.10;;;;;;5058484;28;20398;-54
2021/05/11 11:26:24;;;;;;;0.75;0.52;;;22.00;55.10;;;;;;5058186;28;19912;-54
2021/05/11 11:28:58;;;;;;;1.52;0.70;;;21.90;55.00;;;;;;5057653;28;20029;-55
2021/05/11 11:31:25;;;;;;;2.08;0.90;;;22.00;55.10;;;;;;5058428;28;20029;-58
2021/05/11 11:33:51;;;;;;;0.93;0.75;;;21.90;55.00;;;;;;5057767;28;20082;-54
2021/05/11 11:36:33;;;;;;;1.00;0.60;;;21.90;55.00;;;;;;5058125;28;20029;-59
2021/05/11 11:39:01;;;;;;;2.67;0.95;;;22.00;55.00;;;;;;5057731;28;20072;-59
2021/05/11 11:41:28;;;;;;;1.73;0.80;;;22.00;55.00;;;;;;5057230;28;20379;-58
2021/05/11 11:43:54;;;;;;;2.58;0.70;;;22.00;55.00;;;;;;5058086;28;20424;-59
2021/05/11 11:46:27;;;;;;;2.08;1.05;;;22.00;54.90;;;;;;5057599;28;20068;-56
2021/05/11 11:48:58;;;;;;;1.02;0.80;;;21.90;54.80;;;;;;5040341;28;20071;-54
2021/05/11 11:51:28;;;;;;;1.52;0.70;;;22.00;55.50;;;;;;5057710;28;20039;-56
2021/05/11 11:54:15;;;;;;;1.73;0.80;;;22.00;54.80;;;;;;5057281;28;20056;-55
2021/05/11 11:59:24;;;;;;;0.70;0.70;;;21.90;54.60;;;;;;5057679;28;20056;-59
2021/05/11 12:02:02;;;;;;;1.30;0.70;;;21.90;54.60;;;;;;5057527;28;20432;-56
2021/05/11 12:04:28;;;;;;;1.15;0.70;;;21.90;54.60;;;;;;5039445;28;20455;-57
2021/05/11 12:06:54;;;;;;;1.23;0.95;;;21.90;54.50;;;;;;5057192;28;20118;-60
2021/05/11 12:09:20;;;;;;;1.77;0.70;;;21.90;54.50;;;;;;5057376;28;20037;-54
2021/05/11 12:11:47;;;;;;;1.48;0.70;;;21.90;54.50;;;;;;5057311;28;20104;-59
2021/05/11 12:14:15;;;;;;;1.25;0.70;;;21.90;54.60;;;;;;5056816;28;20021;-58
2021/05/11 12:16:45;;;;;;;0.98;0.75;;;21.80;54.60;;;;;;5056562;28;20028;-54
2021/05/11 12:19:23;;;;;;;1.70;1.10;;;21.80;54.60;;;;;;5057002;28;20428;-56
2021/05/11 12:22:01;;;;;;;1.05;0.80;;;21.80;54.70;;;;;;5057080;28;20025;-60
2021/05/11 12:24:40;;;;;;;1.25;0.80;;;21.80;54.80;;;;;;5057169;28;20064;-57
2021/05/11 12:27:20;;;;;;;1.23;0.80;;;21.80;54.80;;;;;;5056271;28;20083;-50
2021/05/11 12:29:59;;;;;;;0.98;0.90;;;21.80;54.90;;;;;;5056799;28;20036;-59
2021/05/11 12:32:25;;;;;;;1.33;0.95;;;21.70;54.80;;;;;;5056959;28;20028;-59
2021/05/11 12:35:14;;;;;;;0.70;0.70;;;21.80;55.00;;;;;;5057130;28;20108;-61
2021/05/11 12:37:52;;;;;;;1.67;1.00;;;21.80;55.00;;;;;;5056603;28;20053;-57
2021/05/11 12:40:25;;;;;;;2.08;1.00;;;21.80;55.10;;;;;;5056695;28;20036;-58
2021/05/11 12:42:52;;;;;;;4.03;0.90;;;21.70;55.10;;;;;;5056882;28;20035;-57
2021/05/11 12:45:18;;;;;;;5.72;1.13;;;21.70;55.20;;;;;;5056660;28;20025;-57
2021/05/11 12:47:50;;;;;;;1.27;1.00;;;21.70;55.20;;;;;;5056207;28;20099;-58
2021/05/11 12:50:24;;;;;;;2.55;1.00;;;21.70;55.30;;;;;;5038222;28;20025;-54
2021/05/11 12:52:52;;;;;;;1.00;0.90;;;21.70;55.40;;;;;;5055969;28;20100;-60
2021/05/11 12:58:24;;;;;;;2.65;0.90;;;21.80;55.70;;;;;;5038166;28;20349;-58
2021/05/11 13:00:49;;;;;;;4.18;1.10;;;21.70;55.60;;;;;;5036448;28;20030;-56
2021/05/11 13:27:46;;;;;;;4.90;1.77;;;21.70;56.50;;;;;;5035600;28;20044;-61
2021/05/11 13:30:23;;;;;;;7.28;1.85;;;21.80;56.70;;;;;;5035103;28;20439;-60
2021/05/11 13:35:32;;;;;;;;;;;21.80;56.90;;;;;;5036227;28;20436;-60
2021/05/11 13:37:58;;;;;;;4.50;1.90;;;21.80;56.80;;;;;;5034747;28;19987;-63
2021/05/11 13:40:24;;;;;;;3.10;1.38;;;21.80;56.90;;;;;;5034532;28;20041;-60
2021/05/11 13:42:51;;;;;;;5.63;1.38;;;21.80;57.10;;;;;;5035986;28;20432;-56
2021/05/11 13:45:17;;;;;;;3.78;1.45;;;21.80;57.20;;;;;;5035350;28;20135;-57
2021/05/11 13:47:55;;;;;;;5.00;1.38;;;21.80;57.30;;;;;;5036547;28;20052;-58
2021/05/11 13:50:21;;;;;;;9.25;2.60;;;21.70;57.20;;;;;;5034118;28;20032;-60
2021/05/11 13:52:47;;;;;;;10.90;1.88;;;21.70;57.20;;;;;;5035909;28;20061;-59
2021/05/11 13:55:21;;;;;;;7.82;2.58;;;21.80;57.30;;;;;;5017674;28;20446;-60
2021/05/11 14:03:14;;;;;;;6.82;2.50;;;21.70;57.60;;;;;;5034941;28;20028;-54
2021/05/11 14:05:40;;;;;;;3.42;1.70;;;21.70;57.80;;;;;;5035320;28;20025;-52
2021/05/11 14:08:05;;;;;;;5.38;3.25;;;21.70;57.90;;;;;;5035104;28;20352;-56
2021/05/11 14:10:31;;;;;;;1.88;1.50;;;21.70;58.00;;;;;;5034586;28;20025;-53
2021/05/11 14:12:56;;;;;;;5.50;1.95;;;21.70;58.00;;;;;;5035578;28;20336;-57
2021/05/11 14:15:22;;;;;;;3.90;1.92;;;21.70;57.90;;;;;;5035097;28;20063;-56
2021/05/11 14:17:47;;;;;;;2.65;1.80;;;21.70;58.00;;;;;;5035359;28;20021;-56
2021/05/11 14:20:13;;;;;;;3.85;1.40;;;21.60;57.90;;;;;;5017127;28;20029;-55
2021/05/11 14:22:39;;;;;;;5.10;1.95;;;21.60;57.90;;;;;;5035140;28;20049;-57
2021/05/11 14:25:05;;;;;;;3.85;1.50;;;21.60;58.00;;;;;;5034761;28;20057;-58
2021/05/11 14:27:31;;;;;;;5.10;1.77;;;21.60;58.00;;;;;;5034915;28;20128;-55
2021/05/11 14:29:56;;;;;;;6.03;1.75;;;21.60;58.00;;;;;;5034030;28;20037;-57
2021/05/11 14:32:22;;;;;;;6.13;2.00;;;21.60;58.20;;;;;;5034563;28;20025;-57
2021/05/11 14:34:47;;;;;;;3.90;1.60;;;21.70;58.10;;;;;;5034809;28;20440;-56
2021/05/11 14:37:13;;;;;;;3.45;1.55;;;21.60;58.00;;;;;;5040135;28;20444;-56
2021/05/11 14:39:38;;;;;;;5.10;1.40;;;21.60;58.00;;;;;;5041708;28;20112;-58
2021/05/11 14:42:04;;;;;;;7.30;1.42;;;21.60;58.10;;;;;;5034468;28;20125;-52
2021/05/11 14:44:30;;;;;;;9.32;1.77;;;21.60;58.10;;;;;;5034269;28;20037;-58
2021/05/11 14:46:56;;;;;;;5.30;1.35;;;21.70;58.30;;;;;;5034501;28;20057;-57
2021/05/11 14:49:23;;;;;;;5.05;1.52;;;21.60;58.30;;;;;;5017332;28;20334;-58
2021/05/11 14:51:48;;;;;;;6.70;1.65;;;21.60;58.40;;;;;;5037867;28;20026;-56
2021/05/11 14:54:14;;;;;;;3.22;1.65;;;21.70;58.50;;;;;;5037506;28;20079;-59
2021/05/11 14:56:40;;;;;;;5.85;1.90;;;21.70;58.50;;;;;;5038470;28;20045;-58
2021/05/11 14:59:10;;;;;;;3.20;1.63;;;21.60;58.40;;;;;;5038633;28;20025;-55
2021/05/11 15:01:35;;;;;;;4.50;1.60;;;21.60;58.50;;;;;;5037832;28;20440;-57
2021/05/11 15:04:01;;;;;;;7.45;1.60;;;21.60;58.40;;;;;;5038818;28;20017;-56
2021/05/11 15:06:30;;;;;;;5.53;1.67;;;21.60;58.50;;;;;;5038712;28;20032;-51
2021/05/11 15:08:56;;;;;;;3.67;1.73;;;21.60;58.60;;;;;;5037952;28;20108;-53
2021/05/11 15:11:22;;;;;;;6.68;1.55;;;21.60;58.60;;;;;;5038482;28;20427;-54
2021/05/11 15:13:49;;;;;;;2.72;1.60;;;21.60;58.60;;;;;;5038276;28;20025;-56
2021/05/11 15:16:22;;;;;;;4.20;1.90;;;21.60;58.60;;;;;;5038174;28;20425;-58
2021/05/11 15:18:49;;;;;;;3.35;1.63;;;21.60;58.60;;;;;;5038270;28;20334;-55
2021/05/11 15:21:15;;;;;;;5.03;1.83;;;21.60;58.60;;;;;;5038560;28;20326;-53
2021/05/11 15:23:41;;;;;;;3.10;1.58;;;21.60;58.60;;;;;;5038183;28;20087;-57
2021/05/11 15:26:12;;;;;;;3.42;1.67;;;21.60;58.60;;;;;;5020645;28;20032;-57
2021/05/11 15:28:37;;;;;;;3.55;2.17;;;21.60;58.60;;;;;;5038042;28;20061;-56
2021/05/11 15:31:04;;;;;;;6.72;2.13;;;21.60;58.60;;;;;;5038474;28;20053;-55
2021/05/11 15:33:30;;;;;;;4.15;1.50;;;21.60;58.60;;;;;;5038159;28;20048;-56
2021/05/11 15:35:55;;;;;;;3.28;1.70;;;21.60;58.60;;;;;;5037945;28;20029;-56
2021/05/11 15:38:21;;;;;;;5.60;1.95;;;21.60;58.60;;;;;;5038011;28;20022;-58
2021/05/11 15:40:47;;;;;;;3.53;1.65;;;21.60;58.60;;;;;;5037639;28;20211;-57
2021/05/11 15:43:13;;;;;;;2.92;1.90;;;21.60;58.60;;;;;;5037995;28;20468;-56
2021/05/11 15:45:38;;;;;;;4.35;1.90;;;21.60;58.60;;;;;;5037817;28;20100;-57
2021/05/11 15:48:08;;;;;;;2.47;1.73;;;21.60;58.60;;;;;;5038088;28;20040;-53
2021/05/11 15:50:39;;;;;;;4.75;2.00;;;21.60;58.60;;;;;;5019793;28;20356;-59
2021/05/11 15:53:06;;;;;;;5.13;2.20;;;21.60;58.60;;;;;;5018749;28;20025;-57
2021/05/11 15:55:34;;;;;;;2.78;1.60;;;21.60;59.30;;;;;;5037573;28;20017;-58
2021/05/11 15:58:00;;;;;;;2.13;1.63;;;21.60;58.70;;;;;;5037036;28;20037;-52
2021/05/11 16:00:26;;;;;;;1.75;1.50;;;21.60;58.60;;;;;;5037576;28;20056;-54
2021/05/11 16:02:52;;;;;;;4.38;2.42;;;21.60;58.70;;;;;;5019289;28;20026;-57
2021/05/11 16:05:19;;;;;;;3.47;2.08;;;21.60;58.80;;;;;;5037736;28;20040;-57
2021/05/11 16:07:45;;;;;;;1.80;1.58;;;21.60;58.90;;;;;;5037285;28;20025;-56
2021/05/11 16:10:12;;;;;;;3.95;1.92;;;21.60;58.80;;;;;;5037266;28;20029;-55
2021/05/11 16:12:38;;;;;;;11.70;2.50;;;21.60;58.70;;;;;;5037116;28;20029;-56
2021/05/11 16:15:09;;;;;;;2.67;2.08;;;21.60;58.70;;;;;;5037261;28;20025;-56
2021/05/11 16:17:34;;;;;;;5.32;2.00;;;21.60;58.80;;;;;;5037295;28;20022;-56
2021/05/11 16:20:00;;;;;;;2.38;1.60;;;21.60;58.80;;;;;;5037128;28;20086;-53
2021/05/11 16:22:26;;;;;;;5.43;1.90;;;21.50;58.80;;;;;;5036978;28;20044;-53
2021/05/11 16:24:52;;;;;;;4.40;1.60;;;21.50;58.80;;;;;;5037072;28;20030;-55
2021/05/11 16:27:18;;;;;;;3.45;1.75;;;21.50;58.70;;;;;;5036661;28;20045;-57
2021/05/11 16:29:44;;;;;;;6.10;1.45;;;21.50;58.70;;;;;;5037345;28;20051;-56
2021/05/11 16:32:12;;;;;;;6.55;1.75;;;21.50;58.70;;;;;;5036526;28;20455;-55
2021/05/11 16:34:38;;;;;;;1.58;1.48;;;21.60;58.80;;;;;;5036846;28;20444;-55
2021/05/11 16:37:05;;;;;;;1.92;1.60;;;21.50;58.70;;;;;;5037064;28;20049;-57
2021/05/11 16:39:31;;;;;;;3.53;1.75;;;21.50;58.70;;;;;;5036713;28;20072;-58
2021/05/11 16:41:56;;;;;;;4.47;1.98;;;21.50;58.80;;;;;;5036790;28;20089;-54
2021/05/11 16:44:23;;;;;;;2.15;1.58;;;21.50;58.70;;;;;;5036380;28;20079;-55
2021/05/11 16:46:49;;;;;;;2.80;1.40;;;21.50;58.70;;;;;;5036709;28;20048;-56
2021/05/11 16:49:14;;;;;;;2.78;1.58;;;21.50;58.80;;;;;;5019481;28;20022;-56
2021/05/11 16:51:40;;;;;;;2.03;1.48;;;21.50;58.80;;;;;;5036330;28;20108;-56
2021/05/11 16:54:06;;;;;;;4.15;1.35;;;21.50;58.70;;;;;;5036748;28;20061;-57
2021/05/11 16:56:31;;;;;;;2.10;1.67;;;21.50;58.70;;;;;;5018425;28;20066;-55
2021/05/11 16:58:57;;;;;;;2.75;1.65;;;21.50;58.70;;;;;;5036821;28;20029;-57
2021/05/11 17:01:22;;;;;;;1.63;1.30;;;21.50;58.80;;;;;;5018661;28;20029;-57
2021/05/11 17:03:48;;;;;;;2.03;1.70;;;21.50;58.80;;;;;;5036354;28;20026;-52